sensor_id;sensor_type;location;lat;lon;timestamp;temperature;humidity
19805;DHT22;10062;51.052;13.756;2023-04-06T00:02:19;2.60;1.00
19805;DHT22;10062;51.052;13.756;2023-04-06T00:04:50;2.50;1.00
19805;DHT22;10062;51.052;13.756;2023-04-06T00:07:22;2.60;99.90
19805;DHT22;10062;51.052;13.756;2023-04-06T00:09:53;2.60;1.00
19805;DHT22;10062;51.052;13.756;2023-04-06T00:12:25;2.70;99.90
19805;DHT22;10062;51.052;13.756;2023-04-06T00:14:57;2.40;1.00
19805;DHT22;10062;51.052;13.756;2023-04-06T00:17:30;2.30;39.20
19805;DHT22;10062;51.052;13.756;2023-04-06T00:20:02;2.20;1.00
19805;DHT22;10062;51.052;13.756;2023-04-06T00:22:33;2.30;77.10
19805;DHT22;10062;51.052;13.756;2023-04-06T00:25:06;2.40;99.90
19805;DHT22;10062;51.052;13.756;2023-04-06T00:27:38;2.40;99.90
19805;DHT22;10062;51.052;13.756;2023-04-06T00:30:10;2.30;99.90
19805;DHT22;10062;51.052;13.756;2023-04-06T00:32:43;2.40;1.00
19805;DHT22;10062;51.052;13.756;2023-04-06T00:35:15;2.40;99.90
19805;DHT22;10062;51.052;13.756;2023-04-06T00:37:47;2.30;19.20
19805;DHT22;10062;51.052;13.756;2023-04-06T00:40:19;2.30;1.00
19805;DHT22;10062;51.052;13.756;2023-04-06T00:42:51;2.10;1.00
19805;DHT22;10062;51.052;13.756;2023-04-06T00:45:22;2.10;1.00
19805;DHT22;10062;51.052;13.756;2023-04-06T00:47:56;2.10;1.00
19805;DHT22;10062;51.052;13.756;2023-04-06T00:50:28;2.10;1.00
19805;DHT22;10062;51.052;13.756;2023-04-06T00:52:59;2.10;99.90
19805;DHT22;10062;51.052;13.756;2023-04-06T00:55:32;2.00;99.90
19805;DHT22;10062;51.052;13.756;2023-04-06T00:58:06;1.90;1.00
19805;DHT22;10062;51.052;13.756;2023-04-06T01:00:47;2.00;1.00
19805;DHT22;10062;51.052;13.756;2023-04-06T01:03:24;2.00;1.00
19805;DHT22;10062;51.052;13.756;2023-04-06T01:05:55;2.20;57.00
19805;DHT22;10062;51.052;13.756;2023-04-06T01:08:33;2.10;99.90
19805;DHT22;10062;51.052;13.756;2023-04-06T01:11:21;1.90;99.90
19805;DHT22;10062;51.052;13.756;2023-04-06T01:13:54;2.00;1.00
19805;DHT22;10062;51.052;13.756;2023-04-06T01:16:31;2.00;99.90
19805;DHT22;10062;51.052;13.756;2023-04-06T01:19:11;1.90;1.00
19805;DHT22;10062;51.052;13.756;2023-04-06T01:21:47;1.80;1.00
19805;DHT22;10062;51.052;13.756;2023-04-06T01:24:37;1.80;1.00
19805;DHT22;10062;51.052;13.756;2023-04-06T01:27:19;1.70;1.00
19805;DHT22;10062;51.052;13.756;2023-04-06T01:30:10;1.60;99.90
19805;DHT22;10062;51.052;13.756;2023-04-06T01:32:53;1.50;99.90
19805;DHT22;10062;51.052;13.756;2023-04-06T01:35:36;1.50;1.00
19805;DHT22;10062;51.052;13.756;2023-04-06T01:38:20;1.40;1.00
19805;DHT22;10062;51.052;13.756;2023-04-06T01:40:54;1.40;1.00
19805;DHT22;10062;51.052;13.756;2023-04-06T01:43:29;1.30;1.00
19805;DHT22;10062;51.052;13.756;2023-04-06T01:46:10;1.30;1.00
19805;DHT22;10062;51.052;13.756;2023-04-06T01:48:45;1.40;1.00
19805;DHT22;10062;51.052;13.756;2023-04-06T01:51:43;1.60;1.00
19805;DHT22;10062;51.052;13.756;2023-04-06T01:54:17;1.60;99.90
19805;DHT22;10062;51.052;13.756;2023-04-06T01:57:01;1.60;99.90
19805;DHT22;10062;51.052;13.756;2023-04-06T01:59:37;1.40;99.90
19805;DHT22;10062;51.052;13.756;2023-04-06T02:02:15;1.30;1.00
19805;DHT22;10062;51.052;13.756;2023-04-06T02:04:56;1.30;1.00
19805;DHT22;10062;51.052;13.756;2023-04-06T02:07:28;1.10;1.00
19805;DHT22;10062;51.052;13.756;2023-04-06T02:10:00;1.10;1.00
19805;DHT22;10062;51.052;13.756;2023-04-06T02:12:41;1.10;1.00
19805;DHT22;10062;51.052;13.756;2023-04-06T02:15:16;1.00;1.00
19805;DHT22;10062;51.052;13.756;2023-04-06T02:17:48;1.00;1.00
19805;DHT22;10062;51.052;13.756;2023-04-06T02:20:19;1.00;1.00
19805;DHT22;10062;51.052;13.756;2023-04-06T02:22:51;0.90;1.00
19805;DHT22;10062;51.052;13.756;2023-04-06T02:25:23;1.00;1.00
19805;DHT22;10062;51.052;13.756;2023-04-06T02:27:56;1.00;1.00
19805;DHT22;10062;51.052;13.756;2023-04-06T02:30:27;0.90;1.00
19805;DHT22;10062;51.052;13.756;2023-04-06T02:33:00;0.90;1.00
19805;DHT22;10062;51.052;13.756;2023-04-06T02:35:33;0.90;1.00
19805;DHT22;10062;51.052;13.756;2023-04-06T02:38:05;1.00;1.00
19805;DHT22;10062;51.052;13.756;2023-04-06T02:40:37;1.00;1.00
19805;DHT22;10062;51.052;13.756;2023-04-06T02:43:24;1.00;1.00
19805;DHT22;10062;51.052;13.756;2023-04-06T02:46:02;1.00;1.00
19805;DHT22;10062;51.052;13.756;2023-04-06T02:48:38;1.10;99.90
19805;DHT22;10062;51.052;13.756;2023-04-06T02:51:10;1.10;99.90
19805;DHT22;10062;51.052;13.756;2023-04-06T02:53:42;1.10;99.90
19805;DHT22;10062;51.052;13.756;2023-04-06T02:56:14;1.20;1.00
19805;DHT22;10062;51.052;13.756;2023-04-06T02:58:52;1.10;99.90
19805;DHT22;10062;51.052;13.756;2023-04-06T03:01:27;1.00;99.90
19805;DHT22;10062;51.052;13.756;2023-04-06T03:04:03;0.90;1.00
19805;DHT22;10062;51.052;13.756;2023-04-06T03:06:35;0.70;1.00
19805;DHT22;10062;51.052;13.756;2023-04-06T03:09:16;0.70;1.00
19805;DHT22;10062;51.052;13.756;2023-04-06T03:11:48;0.60;1.00
19805;DHT22;10062;51.052;13.756;2023-04-06T03:14:22;0.60;1.00
19805;DHT22;10062;51.052;13.756;2023-04-06T03:16:54;0.60;1.00
19805;DHT22;10062;51.052;13.756;2023-04-06T03:19:26;0.70;1.00
19805;DHT22;10062;51.052;13.756;2023-04-06T03:22:02;0.90;1.00
19805;DHT22;10062;51.052;13.756;2023-04-06T03:24:34;0.80;1.00
19805;DHT22;10062;51.052;13.756;2023-04-06T03:27:06;0.80;1.00
19805;DHT22;10062;51.052;13.756;2023-04-06T03:29:40;0.80;1.00
19805;DHT22;10062;51.052;13.756;2023-04-06T03:32:14;0.60;1.00
19805;DHT22;10062;51.052;13.756;2023-04-06T03:34:46;0.40;1.00
19805;DHT22;10062;51.052;13.756;2023-04-06T03:37:17;0.30;1.00
19805;DHT22;10062;51.052;13.756;2023-04-06T03:39:55;0.20;1.00
19805;DHT22;10062;51.052;13.756;2023-04-06T03:42:28;0.20;1.00
19805;DHT22;10062;51.052;13.756;2023-04-06T03:45:10;0.00;1.00
19805;DHT22;10062;51.052;13.756;2023-04-06T03:47:48;0.00;1.00
19805;DHT22;10062;51.052;13.756;2023-04-06T03:50:20;0.00;1.00
19805;DHT22;10062;51.052;13.756;2023-04-06T03:52:52;0.00;1.00
19805;DHT22;10062;51.052;13.756;2023-04-06T03:55:23;0.00;1.00
19805;DHT22;10062;51.052;13.756;2023-04-06T03:57:55;0.00;1.00
19805;DHT22;10062;51.052;13.756;2023-04-06T04:00:30;0.10;1.00
19805;DHT22;10062;51.052;13.756;2023-04-06T04:03:03;0.10;1.00
19805;DHT22;10062;51.052;13.756;2023-04-06T04:05:34;0.00;1.00
19805;DHT22;10062;51.052;13.756;2023-04-06T04:08:06;-0.10;1.00
19805;DHT22;10062;51.052;13.756;2023-04-06T04:10:38;-0.10;1.00
19805;DHT22;10062;51.052;13.756;2023-04-06T04:13:09;0.00;1.00
19805;DHT22;10062;51.052;13.756;2023-04-06T04:15:43;0.00;1.00
19805;DHT22;10062;51.052;13.756;2023-04-06T04:18:14;-0.10;1.00
19805;DHT22;10062;51.052;13.756;2023-04-06T04:20:46;-0.10;1.00
19805;DHT22;10062;51.052;13.756;2023-04-06T04:23:18;-0.20;1.00
19805;DHT22;10062;51.052;13.756;2023-04-06T04:25:50;-0.20;1.00
19805;DHT22;10062;51.052;13.756;2023-04-06T04:28:22;-0.10;1.00
19805;DHT22;10062;51.052;13.756;2023-04-06T04:30:57;-0.10;1.00
19805;DHT22;10062;51.052;13.756;2023-04-06T04:33:29;-0.10;1.00
19805;DHT22;10062;51.052;13.756;2023-04-06T04:36:02;0.10;1.00
19805;DHT22;10062;51.052;13.756;2023-04-06T04:38:41;0.10;1.00
19805;DHT22;10062;51.052;13.756;2023-04-06T04:41:13;0.20;1.00
19805;DHT22;10062;51.052;13.756;2023-04-06T04:43:47;0.40;1.00
19805;DHT22;10062;51.052;13.756;2023-04-06T04:46:25;0.40;1.00
19805;DHT22;10062;51.052;13.756;2023-04-06T04:48:58;0.50;1.00
19805;DHT22;10062;51.052;13.756;2023-04-06T04:51:31;0.50;1.00
19805;DHT22;10062;51.052;13.756;2023-04-06T04:54:14;0.70;1.00
19805;DHT22;10062;51.052;13.756;2023-04-06T04:56:47;1.50;1.00
19805;DHT22;10062;51.052;13.756;2023-04-06T04:59:26;0.70;1.00
19805;DHT22;10062;51.052;13.756;2023-04-06T05:02:06;0.80;1.00
19805;DHT22;10062;51.052;13.756;2023-04-06T05:04:58;0.80;1.00
19805;DHT22;10062;51.052;13.756;2023-04-06T05:07:32;0.60;1.00
19805;DHT22;10062;51.052;13.756;2023-04-06T05:10:06;0.50;1.00
19805;DHT22;10062;51.052;13.756;2023-04-06T05:12:44;0.50;1.00
19805;DHT22;10062;51.052;13.756;2023-04-06T05:15:16;0.40;1.00
19805;DHT22;10062;51.052;13.756;2023-04-06T05:17:49;0.30;1.00
19805;DHT22;10062;51.052;13.756;2023-04-06T05:20:26;0.40;1.00
19805;DHT22;10062;51.052;13.756;2023-04-06T05:22:58;0.50;1.00
19805;DHT22;10062;51.052;13.756;2023-04-06T05:25:30;0.50;1.00
19805;DHT22;10062;51.052;13.756;2023-04-06T05:28:09;0.60;1.00
19805;DHT22;10062;51.052;13.756;2023-04-06T05:30:43;0.50;1.00
19805;DHT22;10062;51.052;13.756;2023-04-06T05:33:17;0.60;1.00
19805;DHT22;10062;51.052;13.756;2023-04-06T05:36:05;0.50;1.00
19805;DHT22;10062;51.052;13.756;2023-04-06T05:38:41;0.50;1.00
19805;DHT22;10062;51.052;13.756;2023-04-06T05:41:23;0.40;1.00
19805;DHT22;10062;51.052;13.756;2023-04-06T05:43:55;0.40;1.00
19805;DHT22;10062;51.052;13.756;2023-04-06T05:46:28;0.40;1.00
19805;DHT22;10062;51.052;13.756;2023-04-06T05:49:04;0.40;1.00
19805;DHT22;10062;51.052;13.756;2023-04-06T05:51:38;0.50;1.00
19805;DHT22;10062;51.052;13.756;2023-04-06T05:54:09;0.70;1.00
19805;DHT22;10062;51.052;13.756;2023-04-06T05:56:41;0.90;1.00
19805;DHT22;10062;51.052;13.756;2023-04-06T05:59:15;1.00;99.90
19805;DHT22;10062;51.052;13.756;2023-04-06T06:01:48;1.20;99.90
19805;DHT22;10062;51.052;13.756;2023-04-06T06:04:22;1.40;32.10
19805;DHT22;10062;51.052;13.756;2023-04-06T06:06:57;1.50;1.00
19805;DHT22;10062;51.052;13.756;2023-04-06T06:09:41;1.60;1.00
19805;DHT22;10062;51.052;13.756;2023-04-06T06:12:24;1.60;99.90
19805;DHT22;10062;51.052;13.756;2023-04-06T06:14:56;1.70;1.00
19805;DHT22;10062;51.052;13.756;2023-04-06T06:17:29;2.00;99.90
19805;DHT22;10062;51.052;13.756;2023-04-06T06:20:03;2.20;1.00
19805;DHT22;10062;51.052;13.756;2023-04-06T06:22:36;2.50;99.90
19805;DHT22;10062;51.052;13.756;2023-04-06T06:25:08;2.70;1.00
19805;DHT22;10062;51.052;13.756;2023-04-06T06:27:40;2.90;99.90
19805;DHT22;10062;51.052;13.756;2023-04-06T06:30:13;3.10;99.90
19805;DHT22;10062;51.052;13.756;2023-04-06T06:32:46;3.00;1.00
19805;DHT22;10062;51.052;13.756;2023-04-06T06:35:19;3.20;1.00
19805;DHT22;10062;51.052;13.756;2023-04-06T06:37:52;3.40;1.00
19805;DHT22;10062;51.052;13.756;2023-04-06T06:40:27;3.90;1.00
19805;DHT22;10062;51.052;13.756;2023-04-06T06:42:59;4.40;1.00
19805;DHT22;10062;51.052;13.756;2023-04-06T06:45:36;4.70;1.00
19805;DHT22;10062;51.052;13.756;2023-04-06T06:48:08;4.80;1.00
19805;DHT22;10062;51.052;13.756;2023-04-06T06:50:43;4.80;1.00
19805;DHT22;10062;51.052;13.756;2023-04-06T06:53:16;4.40;1.00
19805;DHT22;10062;51.052;13.756;2023-04-06T06:55:48;4.90;99.90
19805;DHT22;10062;51.052;13.756;2023-04-06T06:58:20;5.40;1.00
19805;DHT22;10062;51.052;13.756;2023-04-06T07:00:55;6.20;1.00
19805;DHT22;10062;51.052;13.756;2023-04-06T07:03:27;6.90;99.90
19805;DHT22;10062;51.052;13.756;2023-04-06T07:06:00;7.50;1.00
19805;DHT22;10062;51.052;13.756;2023-04-06T07:08:32;8.40;1.00
19805;DHT22;10062;51.052;13.756;2023-04-06T07:11:04;9.60;1.00
19805;DHT22;10062;51.052;13.756;2023-04-06T07:13:35;11.10;99.90
19805;DHT22;10062;51.052;13.756;2023-04-06T07:16:07;12.70;99.90
19805;DHT22;10062;51.052;13.756;2023-04-06T07:18:39;14.00;99.90
19805;DHT22;10062;51.052;13.756;2023-04-06T07:21:12;14.60;99.90
19805;DHT22;10062;51.052;13.756;2023-04-06T07:23:44;16.50;14.20
19805;DHT22;10062;51.052;13.756;2023-04-06T07:26:18;18.30;25.50
19805;DHT22;10062;51.052;13.756;2023-04-06T07:28:50;19.90;1.00
19805;DHT22;10062;51.052;13.756;2023-04-06T07:31:23;19.10;99.90
19805;DHT22;10062;51.052;13.756;2023-04-06T07:33:54;18.50;99.90
19805;DHT22;10062;51.052;13.756;2023-04-06T07:36:28;18.80;99.90
19805;DHT22;10062;51.052;13.756;2023-04-06T07:38:59;18.80;99.90
19805;DHT22;10062;51.052;13.756;2023-04-06T07:41:31;19.30;99.90
19805;DHT22;10062;51.052;13.756;2023-04-06T07:44:04;21.30;99.90
19805;DHT22;10062;51.052;13.756;2023-04-06T07:46:37;23.10;99.90
19805;DHT22;10062;51.052;13.756;2023-04-06T07:49:09;25.00;99.90
19805;DHT22;10062;51.052;13.756;2023-04-06T07:51:42;24.60;99.90
19805;DHT22;10062;51.052;13.756;2023-04-06T07:54:14;24.70;99.90
19805;DHT22;10062;51.052;13.756;2023-04-06T07:56:45;25.60;99.90
19805;DHT22;10062;51.052;13.756;2023-04-06T07:59:17;26.80;99.90
19805;DHT22;10062;51.052;13.756;2023-04-06T08:01:49;27.20;99.90
19805;DHT22;10062;51.052;13.756;2023-04-06T08:04:20;27.90;99.90
19805;DHT22;10062;51.052;13.756;2023-04-06T08:06:53;27.60;99.90
19805;DHT22;10062;51.052;13.756;2023-04-06T08:09:25;28.00;99.90
19805;DHT22;10062;51.052;13.756;2023-04-06T08:11:57;28.30;99.90
19805;DHT22;10062;51.052;13.756;2023-04-06T08:14:29;28.20;99.90
19805;DHT22;10062;51.052;13.756;2023-04-06T08:17:00;28.70;99.90
19805;DHT22;10062;51.052;13.756;2023-04-06T08:19:32;27.50;92.40
19805;DHT22;10062;51.052;13.756;2023-04-06T08:22:05;28.90;99.40
19805;DHT22;10062;51.052;13.756;2023-04-06T08:24:37;28.70;93.90
19805;DHT22;10062;51.052;13.756;2023-04-06T08:27:08;28.90;82.30
19805;DHT22;10062;51.052;13.756;2023-04-06T08:29:40;29.20;98.30
19805;DHT22;10062;51.052;13.756;2023-04-06T08:32:12;28.30;58.40
19805;DHT22;10062;51.052;13.756;2023-04-06T08:34:43;28.60;60.80
19805;DHT22;10062;51.052;13.756;2023-04-06T08:37:17;28.50;56.70
19805;DHT22;10062;51.052;13.756;2023-04-06T08:39:48;29.40;61.20
19805;DHT22;10062;51.052;13.756;2023-04-06T08:42:22;30.10;63.60
19805;DHT22;10062;51.052;13.756;2023-04-06T08:44:56;30.10;57.60
19805;DHT22;10062;51.052;13.756;2023-04-06T08:47:28;30.00;54.70
19805;DHT22;10062;51.052;13.756;2023-04-06T08:50:04;26.50;14.60
19805;DHT22;10062;51.052;13.756;2023-04-06T08:52:38;24.90;1.90
19805;DHT22;10062;51.052;13.756;2023-04-06T08:55:10;25.10;3.90
19805;DHT22;10062;51.052;13.756;2023-04-06T08:57:42;22.20;1.00
19805;DHT22;10062;51.052;13.756;2023-04-06T09:00:15;25.00;1.00
19805;DHT22;10062;51.052;13.756;2023-04-06T09:02:47;28.50;30.60
19805;DHT22;10062;51.052;13.756;2023-04-06T09:05:20;29.80;37.10
19805;DHT22;10062;51.052;13.756;2023-04-06T09:07:54;29.70;33.30
19805;DHT22;10062;51.052;13.756;2023-04-06T09:10:26;31.90;49.10
19805;DHT22;10062;51.052;13.756;2023-04-06T09:13:04;29.90;18.70
19805;DHT22;10062;51.052;13.756;2023-04-06T09:15:38;30.40;17.10
19805;DHT22;10062;51.052;13.756;2023-04-06T09:18:09;31.30;21.10
19805;DHT22;10062;51.052;13.756;2023-04-06T09:20:41;32.30;26.40
19805;DHT22;10062;51.052;13.756;2023-04-06T09:23:19;33.10;28.00
19805;DHT22;10062;51.052;13.756;2023-04-06T09:25:50;34.00;54.70
19805;DHT22;10062;51.052;13.756;2023-04-06T09:28:22;33.90;28.90
19805;DHT22;10062;51.052;13.756;2023-04-06T09:30:54;32.70;19.50
19805;DHT22;10062;51.052;13.756;2023-04-06T09:33:25;32.50;13.50
19805;DHT22;10062;51.052;13.756;2023-04-06T09:35:57;33.40;19.60
19805;DHT22;10062;51.052;13.756;2023-04-06T09:38:30;34.40;30.70
19805;DHT22;10062;51.052;13.756;2023-04-06T09:41:01;33.50;14.60
19805;DHT22;10062;51.052;13.756;2023-04-06T09:43:33;33.40;10.00
19805;DHT22;10062;51.052;13.756;2023-04-06T09:46:05;35.30;27.00
19805;DHT22;10062;51.052;13.756;2023-04-06T09:48:37;36.70;35.20
19805;DHT22;10062;51.052;13.756;2023-04-06T09:51:11;37.80;43.20
19805;DHT22;10062;51.052;13.756;2023-04-06T09:53:50;38.80;53.80
19805;DHT22;10062;51.052;13.756;2023-04-06T09:56:24;37.50;33.20
19805;DHT22;10062;51.052;13.756;2023-04-06T09:59:04;37.20;26.90
19805;DHT22;10062;51.052;13.756;2023-04-06T10:01:37;36.30;20.00
19805;DHT22;10062;51.052;13.756;2023-04-06T10:04:19;34.90;1.30
19805;DHT22;10062;51.052;13.756;2023-04-06T10:06:53;35.40;5.80
19805;DHT22;10062;51.052;13.756;2023-04-06T10:09:29;33.50;1.00
19805;DHT22;10062;51.052;13.756;2023-04-06T10:12:06;29.50;1.00
19805;DHT22;10062;51.052;13.756;2023-04-06T10:14:38;30.50;1.00
19805;DHT22;10062;51.052;13.756;2023-04-06T10:17:11;30.70;1.00
19805;DHT22;10062;51.052;13.756;2023-04-06T10:19:49;27.80;1.00
19805;DHT22;10062;51.052;13.756;2023-04-06T10:22:29;23.40;1.00
19805;DHT22;10062;51.052;13.756;2023-04-06T10:25:03;20.60;1.00
19805;DHT22;10062;51.052;13.756;2023-04-06T10:27:34;19.00;1.00
19805;DHT22;10062;51.052;13.756;2023-04-06T10:30:07;17.70;1.00
19805;DHT22;10062;51.052;13.756;2023-04-06T10:32:39;17.20;1.00
19805;DHT22;10062;51.052;13.756;2023-04-06T10:35:11;16.30;1.00
19805;DHT22;10062;51.052;13.756;2023-04-06T10:37:51;19.20;1.00
19805;DHT22;10062;51.052;13.756;2023-04-06T10:40:25;24.70;1.00
19805;DHT22;10062;51.052;13.756;2023-04-06T10:43:07;28.30;1.00
19805;DHT22;10062;51.052;13.756;2023-04-06T10:45:39;32.50;1.00
19805;DHT22;10062;51.052;13.756;2023-04-06T10:48:15;35.40;1.00
19805;DHT22;10062;51.052;13.756;2023-04-06T10:50:48;36.60;1.00
19805;DHT22;10062;51.052;13.756;2023-04-06T10:53:21;38.20;1.00
19805;DHT22;10062;51.052;13.756;2023-04-06T10:55:56;39.00;1.00
19805;DHT22;10062;51.052;13.756;2023-04-06T10:58:28;35.00;1.00
19805;DHT22;10062;51.052;13.756;2023-04-06T11:01:01;36.40;1.00
19805;DHT22;10062;51.052;13.756;2023-04-06T11:03:42;36.50;1.00
19805;DHT22;10062;51.052;13.756;2023-04-06T11:06:18;37.20;1.00
19805;DHT22;10062;51.052;13.756;2023-04-06T11:08:51;35.50;1.00
19805;DHT22;10062;51.052;13.756;2023-04-06T11:11:25;32.70;1.00
19805;DHT22;10062;51.052;13.756;2023-04-06T11:13:59;29.90;1.00
19805;DHT22;10062;51.052;13.756;2023-04-06T11:16:32;25.30;1.00
19805;DHT22;10062;51.052;13.756;2023-04-06T11:19:05;23.90;1.00
19805;DHT22;10062;51.052;13.756;2023-04-06T11:21:39;23.80;1.00
19805;DHT22;10062;51.052;13.756;2023-04-06T11:24:13;24.80;1.00
19805;DHT22;10062;51.052;13.756;2023-04-06T11:26:48;25.10;1.00
19805;DHT22;10062;51.052;13.756;2023-04-06T11:29:22;24.90;1.00
19805;DHT22;10062;51.052;13.756;2023-04-06T11:31:58;19.90;1.00
19805;DHT22;10062;51.052;13.756;2023-04-06T11:34:32;17.10;1.00
19805;DHT22;10062;51.052;13.756;2023-04-06T11:37:07;16.70;1.00
19805;DHT22;10062;51.052;13.756;2023-04-06T11:39:40;17.40;1.00
19805;DHT22;10062;51.052;13.756;2023-04-06T11:42:20;18.20;1.00
19805;DHT22;10062;51.052;13.756;2023-04-06T11:44:53;18.90;1.00
19805;DHT22;10062;51.052;13.756;2023-04-06T11:47:29;19.60;1.00
19805;DHT22;10062;51.052;13.756;2023-04-06T11:50:08;19.30;1.00
19805;DHT22;10062;51.052;13.756;2023-04-06T11:52:41;17.30;1.00
19805;DHT22;10062;51.052;13.756;2023-04-06T11:55:14;17.30;1.00
19805;DHT22;10062;51.052;13.756;2023-04-06T11:57:47;17.90;1.00
19805;DHT22;10062;51.052;13.756;2023-04-06T12:00:21;18.60;1.00
19805;DHT22;10062;51.052;13.756;2023-04-06T12:02:52;19.20;1.00
19805;DHT22;10062;51.052;13.756;2023-04-06T12:05:24;19.70;1.00
19805;DHT22;10062;51.052;13.756;2023-04-06T12:07:56;19.70;1.00
19805;DHT22;10062;51.052;13.756;2023-04-06T12:10:28;19.00;1.00
19805;DHT22;10062;51.052;13.756;2023-04-06T12:13:01;18.80;1.00
19805;DHT22;10062;51.052;13.756;2023-04-06T12:15:32;18.80;1.00
19805;DHT22;10062;51.052;13.756;2023-04-06T12:18:04;18.60;1.00
19805;DHT22;10062;51.052;13.756;2023-04-06T12:20:36;19.00;1.00
19805;DHT22;10062;51.052;13.756;2023-04-06T12:23:07;19.40;1.00
19805;DHT22;10062;51.052;13.756;2023-04-06T12:25:39;19.30;1.00
19805;DHT22;10062;51.052;13.756;2023-04-06T12:28:12;19.10;1.00
19805;DHT22;10062;51.052;13.756;2023-04-06T12:30:44;19.50;1.00
19805;DHT22;10062;51.052;13.756;2023-04-06T12:33:15;19.80;1.00
19805;DHT22;10062;51.052;13.756;2023-04-06T12:35:47;19.70;1.00
19805;DHT22;10062;51.052;13.756;2023-04-06T12:38:18;19.50;1.00
19805;DHT22;10062;51.052;13.756;2023-04-06T12:40:50;19.60;1.00
19805;DHT22;10062;51.052;13.756;2023-04-06T12:43:24;20.20;1.00
19805;DHT22;10062;51.052;13.756;2023-04-06T12:45:55;20.50;1.00
19805;DHT22;10062;51.052;13.756;2023-04-06T12:48:27;19.20;1.00
19805;DHT22;10062;51.052;13.756;2023-04-06T12:51:01;18.90;1.00
19805;DHT22;10062;51.052;13.756;2023-04-06T12:53:34;19.10;1.00
19805;DHT22;10062;51.052;13.756;2023-04-06T12:56:12;19.70;1.00
19805;DHT22;10062;51.052;13.756;2023-04-06T12:58:45;20.00;1.00
19805;DHT22;10062;51.052;13.756;2023-04-06T13:01:17;20.10;1.00
19805;DHT22;10062;51.052;13.756;2023-04-06T13:03:49;20.50;1.00
19805;DHT22;10062;51.052;13.756;2023-04-06T13:06:21;20.10;1.00
19805;DHT22;10062;51.052;13.756;2023-04-06T13:08:53;19.20;1.00
19805;DHT22;10062;51.052;13.756;2023-04-06T13:11:25;19.00;1.00
19805;DHT22;10062;51.052;13.756;2023-04-06T13:13:58;19.50;1.00
19805;DHT22;10062;51.052;13.756;2023-04-06T13:16:30;19.90;1.00
19805;DHT22;10062;51.052;13.756;2023-04-06T13:19:02;19.80;1.00
19805;DHT22;10062;51.052;13.756;2023-04-06T13:21:34;19.40;1.00
19805;DHT22;10062;51.052;13.756;2023-04-06T13:24:05;18.90;1.00
19805;DHT22;10062;51.052;13.756;2023-04-06T13:26:37;18.40;1.00
19805;DHT22;10062;51.052;13.756;2023-04-06T13:29:10;17.40;1.00
19805;DHT22;10062;51.052;13.756;2023-04-06T13:31:42;17.30;1.00
19805;DHT22;10062;51.052;13.756;2023-04-06T13:34:13;17.50;1.00
19805;DHT22;10062;51.052;13.756;2023-04-06T13:36:45;18.00;1.00
19805;DHT22;10062;51.052;13.756;2023-04-06T13:39:17;18.60;1.00
19805;DHT22;10062;51.052;13.756;2023-04-06T13:41:48;19.00;1.00
19805;DHT22;10062;51.052;13.756;2023-04-06T13:44:21;19.00;1.00
19805;DHT22;10062;51.052;13.756;2023-04-06T13:46:53;18.70;1.00
19805;DHT22;10062;51.052;13.756;2023-04-06T13:49:25;18.30;1.00
19805;DHT22;10062;51.052;13.756;2023-04-06T13:51:57;18.10;1.00
19805;DHT22;10062;51.052;13.756;2023-04-06T13:54:28;18.50;1.00
19805;DHT22;10062;51.052;13.756;2023-04-06T13:57:00;18.10;1.00
19805;DHT22;10062;51.052;13.756;2023-04-06T13:59:33;18.10;1.00
19805;DHT22;10062;51.052;13.756;2023-04-06T14:02:07;18.40;1.00
19805;DHT22;10062;51.052;13.756;2023-04-06T14:04:39;18.50;1.00
19805;DHT22;10062;51.052;13.756;2023-04-06T14:07:11;18.80;1.00
19805;DHT22;10062;51.052;13.756;2023-04-06T14:09:43;18.80;1.00
19805;DHT22;10062;51.052;13.756;2023-04-06T14:12:14;18.80;1.00
19805;DHT22;10062;51.052;13.756;2023-04-06T14:14:47;18.90;1.00
19805;DHT22;10062;51.052;13.756;2023-04-06T14:17:19;19.30;1.00
19805;DHT22;10062;51.052;13.756;2023-04-06T14:19:50;19.50;1.00
19805;DHT22;10062;51.052;13.756;2023-04-06T14:22:23;18.40;1.00
19805;DHT22;10062;51.052;13.756;2023-04-06T14:24:54;18.80;1.00
19805;DHT22;10062;51.052;13.756;2023-04-06T14:27:26;19.00;1.00
19805;DHT22;10062;51.052;13.756;2023-04-06T14:29:59;19.20;1.00
19805;DHT22;10062;51.052;13.756;2023-04-06T14:32:34;18.80;1.00
19805;DHT22;10062;51.052;13.756;2023-04-06T14:35:07;18.60;1.00
19805;DHT22;10062;51.052;13.756;2023-04-06T14:37:38;18.10;1.00
19805;DHT22;10062;51.052;13.756;2023-04-06T14:40:11;17.70;1.00
19805;DHT22;10062;51.052;13.756;2023-04-06T14:42:42;18.00;1.00
19805;DHT22;10062;51.052;13.756;2023-04-06T14:45:16;18.20;1.00
19805;DHT22;10062;51.052;13.756;2023-04-06T14:47:49;18.00;1.00
19805;DHT22;10062;51.052;13.756;2023-04-06T14:50:21;17.80;1.00
19805;DHT22;10062;51.052;13.756;2023-04-06T14:52:53;17.30;1.00
19805;DHT22;10062;51.052;13.756;2023-04-06T14:55:25;16.80;1.00
19805;DHT22;10062;51.052;13.756;2023-04-06T14:57:56;16.50;1.00
19805;DHT22;10062;51.052;13.756;2023-04-06T15:00:30;16.50;1.00
19805;DHT22;10062;51.052;13.756;2023-04-06T15:03:02;16.30;1.00
19805;DHT22;10062;51.052;13.756;2023-04-06T15:05:34;16.10;1.00
19805;DHT22;10062;51.052;13.756;2023-04-06T15:08:06;15.70;1.00
19805;DHT22;10062;51.052;13.756;2023-04-06T15:10:39;15.50;1.00
19805;DHT22;10062;51.052;13.756;2023-04-06T15:13:11;15.10;1.00
19805;DHT22;10062;51.052;13.756;2023-04-06T15:15:44;14.80;1.00
19805;DHT22;10062;51.052;13.756;2023-04-06T15:18:16;14.70;1.00
19805;DHT22;10062;51.052;13.756;2023-04-06T15:20:47;14.70;1.00
19805;DHT22;10062;51.052;13.756;2023-04-06T15:23:19;14.70;1.00
19805;DHT22;10062;51.052;13.756;2023-04-06T15:25:51;15.10;1.00
19805;DHT22;10062;51.052;13.756;2023-04-06T15:28:23;15.10;1.00
19805;DHT22;10062;51.052;13.756;2023-04-06T15:30:56;15.10;1.00
19805;DHT22;10062;51.052;13.756;2023-04-06T15:33:28;15.50;1.00
19805;DHT22;10062;51.052;13.756;2023-04-06T15:36:02;15.80;1.00
19805;DHT22;10062;51.052;13.756;2023-04-06T15:38:37;16.00;1.00
19805;DHT22;10062;51.052;13.756;2023-04-06T15:41:08;15.80;1.00
19805;DHT22;10062;51.052;13.756;2023-04-06T15:43:40;15.90;1.00
19805;DHT22;10062;51.052;13.756;2023-04-06T15:46:13;16.20;1.00
19805;DHT22;10062;51.052;13.756;2023-04-06T15:48:45;16.30;1.00
19805;DHT22;10062;51.052;13.756;2023-04-06T15:51:17;16.40;1.00
19805;DHT22;10062;51.052;13.756;2023-04-06T15:53:49;16.00;1.00
19805;DHT22;10062;51.052;13.756;2023-04-06T15:56:20;15.80;1.00
19805;DHT22;10062;51.052;13.756;2023-04-06T15:58:52;15.60;1.00
19805;DHT22;10062;51.052;13.756;2023-04-06T16:01:25;15.60;1.00
19805;DHT22;10062;51.052;13.756;2023-04-06T16:03:57;15.70;1.00
19805;DHT22;10062;51.052;13.756;2023-04-06T16:06:28;15.80;1.00
19805;DHT22;10062;51.052;13.756;2023-04-06T16:09:01;15.80;1.00
19805;DHT22;10062;51.052;13.756;2023-04-06T16:11:33;15.80;1.00
19805;DHT22;10062;51.052;13.756;2023-04-06T16:14:06;15.30;1.00